Time;durP1;ratioP1;P1;durP2;ratioP2;P2;SDS_P1;SDS_P2;PMS_P1;PMS_P2;Temp;Humidity;BMP_temperature;BMP_pressure;BME280_temperature;BME280_humidity;BME280_pressure;Samples;Min_cycle;Max_cycle;Signal;HPM_P1;HPM_P2
2021/06/05 00:01:16;;;;;;;5.20;2.40;;;21.90;54.60;;;;;;21089782;28;20083;-56
2021/06/05 00:11:20;;;;;;;4.15;2.70;;;21.70;54.90;;;;;;21089240;28;20044;-55
2021/06/05 00:21:25;;;;;;;4.32;2.70;;;21.60;55.00;;;;;;21088383;28;20411;-55
2021/06/05 00:31:27;;;;;;;4.75;2.70;;;21.40;55.00;;;;;;21088217;28;20048;-54
2021/06/05 00:41:29;;;;;;;5.33;3.00;;;21.20;55.50;;;;;;21068507;28;20059;-56
2021/06/05 00:51:51;;;;;;;5.43;2.83;;;21.10;55.90;;;;;;21086303;28;20048;-57
2021/06/05 01:01:53;;;;;;;4.37;2.77;;;21.10;55.60;;;;;;21084521;28;20055;-54
2021/06/05 01:12:06;;;;;;;6.05;2.85;;;20.90;55.90;;;;;;21084764;28;20101;-53
2021/06/05 01:22:35;;;;;;;4.03;2.78;;;21.00;55.80;;;;;;21083394;28;20094;-53
2021/06/05 01:32:38;;;;;;;4.45;2.78;;;20.80;55.90;;;;;;21082626;28;20044;-52
2021/06/05 01:42:42;;;;;;;3.28;2.85;;;20.80;56.00;;;;;;21082491;28;20094;-52
2021/06/05 01:52:43;;;;;;;4.97;3.03;;;20.60;56.50;;;;;;21081633;28;20048;-52
2021/06/05 02:02:45;;;;;;;4.57;3.08;;;20.40;56.80;;;;;;21080026;28;20056;-53
2021/06/05 02:12:50;;;;;;;4.43;3.15;;;20.40;56.70;;;;;;21080117;28;20040;-53
2021/06/05 02:22:52;;;;;;;4.35;2.72;;;20.30;56.80;;;;;;21078728;28;20051;-52
2021/06/05 02:32:54;;;;;;;3.73;2.90;;;20.40;56.80;;;;;;21078967;28;20040;-52
2021/06/05 02:43:02;;;;;;;4.43;2.55;;;20.30;56.80;;;;;;21078221;28;20089;-52
2021/06/05 02:53:05;;;;;;;4.85;2.97;;;20.20;57.00;;;;;;21060201;28;20086;-52
2021/06/05 03:03:09;;;;;;;3.77;2.80;;;20.20;57.30;;;;;;21078059;28;20424;-52
2021/06/05 03:13:11;;;;;;;4.10;2.60;;;20.10;57.60;;;;;;21077737;28;20079;-53
2021/06/05 03:23:16;;;;;;;4.15;2.85;;;19.90;58.20;;;;;;21076847;28;20055;-54
2021/06/05 03:33:19;;;;;;;4.68;3.20;;;20.00;58.20;;;;;;21090300;28;20048;-56
2021/06/05 03:43:22;;;;;;;5.38;3.33;;;19.90;58.10;;;;;;21091787;28;20438;-53
2021/06/05 03:53:25;;;;;;;5.47;3.40;;;19.70;58.70;;;;;;21090618;28;20055;-54
2021/06/05 04:03:26;;;;;;;5.50;3.58;;;19.70;58.90;;;;;;21090041;28;20087;-52
2021/06/05 04:13:28;;;;;;;4.50;3.45;;;19.60;59.10;;;;;;21089241;28;20044;-53
2021/06/05 04:23:29;;;;;;;3.90;3.05;;;19.60;59.10;;;;;;21088483;28;20048;-51
2021/06/05 04:33:31;;;;;;;6.07;3.60;;;19.60;59.30;;;;;;21088548;28;20055;-55
2021/06/05 04:43:32;;;;;;;6.57;3.80;;;19.60;59.10;;;;;;21086366;28;20055;-54
2021/06/05 04:53:35;;;;;;;5.95;3.50;;;19.50;59.50;;;;;;21086468;28;20044;-53
2021/06/05 05:03:36;;;;;;;6.63;3.65;;;19.40;59.90;;;;;;21085177;28;20052;-53
2021/06/05 05:13:37;;;;;;;4.70;3.10;;;19.50;59.80;;;;;;21084550;28;20485;-54
2021/06/05 05:23:39;;;;;;;16.33;5.28;;;19.50;59.90;;;;;;21083415;28;20051;-54
2021/06/05 05:33:41;;;;;;;6.85;4.55;;;19.50;63.50;;;;;;21083247;28;20052;-54
2021/06/05 05:43:42;;;;;;;5.93;4.28;;;19.40;65.60;;;;;;21082097;28;20055;-55
2021/06/05 05:53:44;;;;;;;9.00;4.90;;;19.30;65.70;;;;;;21081243;28;20047;-57
2021/06/05 06:03:50;;;;;;;8.73;5.15;;;19.40;66.10;;;;;;21080620;28;20060;-55
2021/06/05 06:13:51;;;;;;;25.08;22.35;;;19.40;65.30;;;;;;21063093;28;20165;-53
2021/06/05 06:23:53;;;;;;;6.55;4.30;;;19.30;66.10;;;;;;21079822;28;20476;-55
2021/06/05 06:33:54;;;;;;;9.75;5.13;;;19.40;64.90;;;;;;21079678;28;20082;-53
2021/06/05 06:43:58;;;;;;;7.65;4.88;;;19.50;64.30;;;;;;21078938;28;20048;-53
2021/06/05 06:53:59;;;;;;;6.90;4.72;;;19.50;63.60;;;;;;21078695;28;20070;-56
2021/06/05 07:04:01;;;;;;;6.78;4.78;;;19.40;63.60;;;;;;21084484;28;20577;-55
2021/06/05 07:14:04;;;;;;;8.32;4.80;;;19.50;63.10;;;;;;21093623;28;20101;-55
2021/06/05 07:24:06;;;;;;;9.93;4.68;;;19.60;63.20;;;;;;21093167;28;20125;-54
2021/06/05 07:34:09;;;;;;;6.90;4.20;;;19.60;62.50;;;;;;21092611;28;20055;-55
2021/06/05 07:44:11;;;;;;;5.53;4.37;;;19.70;61.80;;;;;;21091722;28;20357;-54
2021/06/05 07:54:12;;;;;;;11.07;4.97;;;20.00;61.90;;;;;;21091567;28;20040;-52
2021/06/05 08:04:14;;;;;;;8.98;4.78;;;20.20;61.10;;;;;;21089795;28;20071;-52
2021/06/05 08:14:15;;;;;;;8.45;5.63;;;20.50;60.60;;;;;;21087724;28;20404;-54
2021/06/05 08:24:18;;;;;;;10.27;5.80;;;20.70;59.70;;;;;;21088480;28;20052;-52
2021/06/05 08:34:20;;;;;;;10.23;6.13;;;21.20;59.30;;;;;;21087885;28;20097;-53
2021/06/05 08:44:25;;;;;;;12.70;6.90;;;21.60;58.70;;;;;;21086701;28;20052;-53
2021/06/05 08:54:50;;;;;;;14.88;7.90;;;21.80;58.70;;;;;;21085343;28;20089;-51
2021/06/05 09:04:53;;;;;;;9.25;6.43;;;22.10;58.70;;;;;;21084565;28;20059;-53
2021/06/05 09:14:58;;;;;;;9.60;7.45;;;22.20;58.50;;;;;;21083978;28;20048;-54
2021/06/05 09:25:15;;;;;;;11.60;7.78;;;22.40;58.30;;;;;;21083309;28;20143;-55
2021/06/05 09:35:23;;;;;;;14.43;8.27;;;22.50;58.10;;;;;;21082775;28;20048;-54
2021/06/05 09:45:27;;;;;;;13.55;8.30;;;22.60;58.20;;;;;;21082012;28;20056;-55
2021/06/05 09:55:34;;;;;;;12.30;9.07;;;22.90;58.10;;;;;;21081294;28;20373;-54
2021/06/05 10:05:40;;;;;;;11.60;7.97;;;22.90;58.00;;;;;;21080044;28;20059;-55
2021/06/05 10:16:12;;;;;;;11.52;8.63;;;23.00;57.80;;;;;;21079944;28;20492;-52
2021/06/05 10:26:21;;;;;;;;;;;23.10;57.80;;;;;;21080179;28;20083;-56
2021/06/05 10:36:32;;;;;;;10.18;8.18;;;22.90;58.00;;;;;;21078113;28;19920;-53
2021/06/05 10:46:56;;;;;;;15.85;9.30;;;23.20;57.50;;;;;;21078604;28;20048;-56
2021/06/05 10:57:03;;;;;;;13.38;8.48;;;23.10;57.80;;;;;;21078758;28;20492;-56
2021/06/05 11:07:04;;;;;;;14.45;8.20;;;23.20;57.40;;;;;;21077746;28;20048;-54
2021/06/05 11:17:25;;;;;;;11.93;7.88;;;23.40;56.50;;;;;;21077223;28;20403;-54
2021/06/05 11:27:38;;;;;;;9.15;4.70;;;23.90;55.10;;;;;;21077186;28;20048;-53
2021/06/05 11:37:44;;;;;;;8.00;3.40;;;24.20;52.60;;;;;;21077255;28;20052;-53
2021/06/05 11:47:46;;;;;;;5.72;3.13;;;24.40;49.40;;;;;;21079875;28;20052;-53
2021/06/05 11:57:53;;;;;;;5.13;3.73;;;24.60;46.90;;;;;;21090642;28;20419;-56
2021/06/05 12:07:56;;;;;;;4.95;2.85;;;24.60;46.20;;;;;;21089633;28;20051;-53
2021/06/05 12:17:59;;;;;;;6.68;3.35;;;24.60;46.10;;;;;;21088791;28;20079;-52
2021/06/05 12:28:16;;;;;;;6.78;2.63;;;24.40;46.90;;;;;;21087967;28;20055;-53
2021/06/05 12:38:36;;;;;;;6.38;3.90;;;24.30;46.70;;;;;;21087076;28;20066;-53
2021/06/05 12:48:38;;;;;;;6.95;3.30;;;24.20;48.90;;;;;;21087236;28;20504;-55
2021/06/05 12:58:43;;;;;;;6.77;2.70;;;24.00;51.60;;;;;;21085090;28;20059;-53
2021/06/05 13:08:50;;;;;;;5.65;3.10;;;23.80;52.70;;;;;;21085559;28;20048;-53
2021/06/05 13:18:51;;;;;;;4.40;2.60;;;23.70;51.50;;;;;;21084620;28;20044;-53
2021/06/05 13:28:53;;;;;;;6.90;2.80;;;23.80;50.00;;;;;;21083124;28;20052;-53
2021/06/05 13:39:08;;;;;;;4.60;2.08;;;23.80;50.10;;;;;;21082571;28;20044;-55
2021/06/05 13:49:09;;;;;;;7.30;3.20;;;23.90;48.70;;;;;;21082042;28;20054;-55
2021/06/05 13:59:10;;;;;;;5.70;2.57;;;23.80;48.40;;;;;;21080803;28;20048;-54
2021/06/05 14:09:12;;;;;;;6.55;2.75;;;23.70;48.90;;;;;;21079306;28;20082;-54
2021/06/05 14:19:14;;;;;;;4.95;2.25;;;23.80;48.80;;;;;;21079754;28;20040;-53
2021/06/05 14:29:15;;;;;;;6.63;3.80;;;23.70;48.90;;;;;;21078953;28;20473;-55
2021/06/05 14:39:17;;;;;;;4.10;2.50;;;23.60;49.20;;;;;;21078282;28;20048;-54
2021/06/05 14:49:19;;;;;;;4.50;3.17;;;23.60;49.30;;;;;;21078101;28;20067;-54
2021/06/05 14:59:20;;;;;;;5.63;3.58;;;23.60;49.10;;;;;;21077606;28;20044;-53
2021/06/05 15:09:22;;;;;;;8.77;3.05;;;23.60;49.50;;;;;;21076861;28;20052;-54
2021/06/05 15:19:23;;;;;;;5.77;2.83;;;23.60;49.50;;;;;;21077126;28;20400;-53
2021/06/05 15:29:25;;;;;;;7.55;3.10;;;23.40;49.90;;;;;;21090098;28;20091;-53
2021/06/05 15:39:27;;;;;;;7.40;4.15;;;23.30;50.60;;;;;;21092019;28;20052;-54
2021/06/05 15:49:28;;;;;;;5.80;3.07;;;23.30;50.20;;;;;;21091408;28;20047;-53
2021/06/05 15:59:30;;;;;;;7.43;2.90;;;23.40;50.20;;;;;;21090138;28;20783;-55
2021/06/05 16:09:31;;;;;;;5.68;3.50;;;23.40;50.40;;;;;;21089030;28;20052;-56
2021/06/05 16:19:32;;;;;;;9.43;3.67;;;23.50;50.20;;;;;;21089368;28;20093;-55
2021/06/05 16:29:34;;;;;;;5.65;3.03;;;23.50;50.10;;;;;;21088796;28;20438;-55
2021/06/05 16:39:36;;;;;;;4.00;2.50;;;23.40;49.90;;;;;;21086838;28;20074;-53
2021/06/05 16:49:37;;;;;;;14.90;5.27;;;23.20;50.40;;;;;;21086873;28;20557;-56
2021/06/05 16:59:38;;;;;;;7.07;4.68;;;22.90;56.20;;;;;;21086577;28;20385;-54
2021/06/05 17:09:40;;;;;;;7.10;4.35;;;22.30;60.60;;;;;;21084639;28;20203;-53
2021/06/05 17:19:41;;;;;;;7.93;4.25;;;22.30;61.60;;;;;;21084403;28;20052;-55
2021/06/05 17:29:47;;;;;;;13.40;4.50;;;21.90;62.00;;;;;;21083366;28;20048;-53
2021/06/05 17:39:48;;;;;;;8.68;4.38;;;21.80;62.50;;;;;;21082274;28;20048;-54
2021/06/05 17:49:49;;;;;;;7.47;4.20;;;21.60;62.70;;;;;;21081699;28;20353;-54
2021/06/05 17:59:50;;;;;;;5.53;4.38;;;21.60;63.20;;;;;;21080883;28;20055;-54
2021/06/05 18:09:52;;;;;;;6.57;4.63;;;21.60;64.40;;;;;;21079836;28;20051;-53
2021/06/05 18:19:53;;;;;;;5.82;3.65;;;21.60;64.30;;;;;;21079253;28;20048;-52
2021/06/05 18:29:55;;;;;;;6.28;3.40;;;21.60;63.20;;;;;;21078771;28;20514;-53
2021/06/05 18:39:57;;;;;;;7.43;4.10;;;21.60;62.50;;;;;;21078378;28;20441;-54
2021/06/05 18:49:58;;;;;;;8.45;4.60;;;21.60;63.40;;;;;;21078363;28;20047;-55
2021/06/05 18:59:59;;;;;;;7.22;3.55;;;21.50;63.30;;;;;;21066986;28;20081;-53
2021/06/05 19:10:01;;;;;;;8.25;4.25;;;21.50;62.10;;;;;;21058805;28;20048;-54
2021/06/05 19:20:05;;;;;;;6.18;4.20;;;21.60;62.40;;;;;;21092828;28;20550;-54
2021/06/05 19:30:10;;;;;;;8.43;4.50;;;21.60;60.90;;;;;;21092631;28;20081;-54
2021/06/05 19:40:14;;;;;;;9.63;6.90;;;21.60;60.70;;;;;;21092384;28;20052;-53
2021/06/05 19:50:19;;;;;;;10.95;6.25;;;21.50;61.40;;;;;;21091267;28;20077;-55
2021/06/05 20:00:35;;;;;;;9.30;6.57;;;21.40;62.70;;;;;;21090273;28;20060;-56
2021/06/05 20:10:37;;;;;;;9.88;4.82;;;21.30;62.50;;;;;;21089721;28;20052;-54
2021/06/05 20:20:42;;;;;;;5.73;2.87;;;21.20;58.90;;;;;;21089425;28;20079;-54
2021/06/05 20:30:44;;;;;;;9.85;4.38;;;21.20;58.00;;;;;;21088371;28;20048;-53
2021/06/05 20:40:45;;;;;;;7.78;4.10;;;21.20;58.90;;;;;;21087315;28;20476;-54
2021/06/05 20:50:46;;;;;;;7.07;3.78;;;21.10;61.30;;;;;;21086908;28;20040;-55
2021/06/05 21:00:51;;;;;;;9.52;4.13;;;21.10;61.70;;;;;;21086039;28;20051;-54
2021/06/05 21:10:53;;;;;;;8.50;4.07;;;21.10;62.00;;;;;;21085264;28;20056;-53
2021/06/05 21:20:54;;;;;;;6.63;4.30;;;21.10;62.50;;;;;;21084830;28;20490;-56
2021/06/05 21:30:57;;;;;;;8.43;4.15;;;21.00;62.70;;;;;;21084171;28;20063;-57
2021/06/05 21:41:01;;;;;;;6.68;4.22;;;21.00;61.40;;;;;;21064893;28;20052;-55
2021/06/05 21:51:07;;;;;;;9.52;4.55;;;20.90;61.60;;;;;;21082302;28;20044;-54
2021/06/05 22:01:10;;;;;;;6.53;4.70;;;20.70;63.10;;;;;;21081280;28;20048;-55
2021/06/05 22:11:32;;;;;;;8.85;5.57;;;20.70;63.20;;;;;;21081503;28;20389;-56
2021/06/05 22:21:39;;;;;;;7.15;4.55;;;20.80;62.90;;;;;;21079725;28;20048;-56
2021/06/05 22:31:41;;;;;;;7.97;4.70;;;20.70;63.10;;;;;;21079183;28;20040;-53
2021/06/05 22:41:43;;;;;;;5.43;3.77;;;20.80;62.90;;;;;;21078918;28;20052;-57
2021/06/05 22:51:45;;;;;;;7.40;4.17;;;20.80;61.70;;;;;;21078514;28;20055;-54
2021/06/05 23:01:55;;;;;;;7.28;4.22;;;20.80;61.20;;;;;;21077891;28;20412;-54
2021/06/05 23:11:57;;;;;;;7.47;4.28;;;20.90;60.50;;;;;;21077424;28;20040;-53
2021/06/05 23:21:58;;;;;;;6.32;4.22;;;20.90;60.60;;;;;;21077269;28;20051;-54
2021/06/05 23:32:00;;;;;;;5.63;3.75;;;20.90;60.90;;;;;;21059268;28;20067;-55
2021/06/05 23:42:01;;;;;;;7.88;4.57;;;20.80;60.30;;;;;;21076948;28;20062;-55
2021/06/05 23:52:03;;;;;;;7.15;4.35;;;20.80;59.10;;;;;;21091832;28;20044;-54
